sensor_id;sensor_type;location;lat;lon;timestamp;pressure;altitude;pressure_sealevel;temperature;humidity
54882;BME280;40775;51.448;4.742;2024-01-15T00:00:30;100518.44;;;3.39;100.00
54882;BME280;40775;51.448;4.742;2024-01-15T00:02:57;100510.53;;;3.36;100.00
54882;BME280;40775;51.448;4.742;2024-01-15T00:05:24;100504.72;;;3.41;100.00
54882;BME280;40775;51.448;4.742;2024-01-15T00:07:51;100483.81;;;3.38;100.00
54882;BME280;40775;51.448;4.742;2024-01-15T00:10:18;100483.75;;;3.37;100.00
54882;BME280;40775;51.448;4.742;2024-01-15T00:12:45;100480.28;;;3.36;100.00
54882;BME280;40775;51.448;4.742;2024-01-15T00:15:12;100479.59;;;3.40;100.00
54882;BME280;40775;51.448;4.742;2024-01-15T00:17:39;100477.13;;;3.44;100.00
54882;BME280;40775;51.448;4.742;2024-01-15T00:20:07;100474.41;;;3.40;100.00
54882;BME280;40775;51.448;4.742;2024-01-15T00:22:34;100480.66;;;3.46;100.00
54882;BME280;40775;51.448;4.742;2024-01-15T00:25:03;100499.53;;;3.41;100.00
54882;BME280;40775;51.448;4.742;2024-01-15T00:27:30;100497.19;;;3.48;100.00
54882;BME280;40775;51.448;4.742;2024-01-15T00:29:57;100497.19;;;3.28;100.00
54882;BME280;40775;51.448;4.742;2024-01-15T00:32:24;100499.78;;;3.28;100.00
54882;BME280;40775;51.448;4.742;2024-01-15T00:34:51;100484.34;;;3.51;100.00
54882;BME280;40775;51.448;4.742;2024-01-15T00:37:18;100475.59;;;3.49;100.00
54882;BME280;40775;51.448;4.742;2024-01-15T00:39:45;100456.38;;;3.44;100.00
54882;BME280;40775;51.448;4.742;2024-01-15T00:42:13;100453.78;;;3.44;100.00
54882;BME280;40775;51.448;4.742;2024-01-15T00:44:40;100454.09;;;3.51;100.00
54882;BME280;40775;51.448;4.742;2024-01-15T00:47:07;100453.06;;;3.48;100.00
54882;BME280;40775;51.448;4.742;2024-01-15T00:49:34;100463.38;;;3.46;100.00
54882;BME280;40775;51.448;4.742;2024-01-15T00:52:01;100448.00;;;3.51;100.00
54882;BME280;40775;51.448;4.742;2024-01-15T00:54:28;100455.47;;;3.43;100.00
54882;BME280;40775;51.448;4.742;2024-01-15T00:56:55;100452.69;;;3.38;100.00
54882;BME280;40775;51.448;4.742;2024-01-15T00:59:22;100459.91;;;3.46;100.00
54882;BME280;40775;51.448;4.742;2024-01-15T01:01:49;100450.78;;;3.34;100.00
54882;BME280;40775;51.448;4.742;2024-01-15T01:04:16;100461.31;;;3.37;100.00
54882;BME280;40775;51.448;4.742;2024-01-15T01:06:44;100458.56;;;3.34;100.00
54882;BME280;40775;51.448;4.742;2024-01-15T01:09:11;100459.28;;;3.30;100.00
54882;BME280;40775;51.448;4.742;2024-01-15T01:11:39;100456.44;;;3.26;100.00
54882;BME280;40775;51.448;4.742;2024-01-15T01:14:06;100442.81;;;3.30;100.00
54882;BME280;40775;51.448;4.742;2024-01-15T01:16:33;100442.66;;;3.27;100.00
54882;BME280;40775;51.448;4.742;2024-01-15T01:19:06;100435.63;;;3.24;100.00
54882;BME280;40775;51.448;4.742;2024-01-15T01:21:34;100435.38;;;3.18;100.00
54882;BME280;40775;51.448;4.742;2024-01-15T01:24:01;100432.91;;;3.21;100.00
54882;BME280;40775;51.448;4.742;2024-01-15T01:26:28;100435.13;;;3.12;100.00
54882;BME280;40775;51.448;4.742;2024-01-15T01:28:55;100431.66;;;3.12;100.00
54882;BME280;40775;51.448;4.742;2024-01-15T01:31:23;100429.06;;;3.12;100.00
54882;BME280;40775;51.448;4.742;2024-01-15T01:33:51;100426.41;;;3.10;100.00
54882;BME280;40775;51.448;4.742;2024-01-15T01:36:18;100437.09;;;3.18;100.00
54882;BME280;40775;51.448;4.742;2024-01-15T01:38:45;100422.28;;;3.15;100.00
54882;BME280;40775;51.448;4.742;2024-01-15T01:41:12;100441.47;;;3.19;100.00
54882;BME280;40775;51.448;4.742;2024-01-15T01:43:39;100450.00;;;3.16;100.00
54882;BME280;40775;51.448;4.742;2024-01-15T01:46:06;100453.66;;;3.21;100.00
54882;BME280;40775;51.448;4.742;2024-01-15T01:48:34;100450.94;;;3.18;100.00
54882;BME280;40775;51.448;4.742;2024-01-15T01:51:03;100453.53;;;3.18;100.00
54882;BME280;40775;51.448;4.742;2024-01-15T01:53:32;100441.38;;;3.17;100.00
54882;BME280;40775;51.448;4.742;2024-01-15T01:56:00;100430.94;;;3.16;100.00
54882;BME280;40775;51.448;4.742;2024-01-15T01:58:29;100427.47;;;3.15;100.00
54882;BME280;40775;51.448;4.742;2024-01-15T02:00:56;100430.19;;;3.18;100.00
54882;BME280;40775;51.448;4.742;2024-01-15T02:03:27;100433.28;;;3.09;100.00
54882;BME280;40775;51.448;4.742;2024-01-15T02:05:55;100429.00;;;3.10;100.00
54882;BME280;40775;51.448;4.742;2024-01-15T02:08:23;100427.59;;;3.18;100.00
54882;BME280;40775;51.448;4.742;2024-01-15T02:10:50;100428.38;;;3.16;100.00
54882;BME280;40775;51.448;4.742;2024-01-15T02:13:18;100429.19;;;3.15;100.00
54882;BME280;40775;51.448;4.742;2024-01-15T02:15:45;100432.59;;;3.14;100.00
54882;BME280;40775;51.448;4.742;2024-01-15T02:18:13;100421.41;;;3.15;100.00
54882;BME280;40775;51.448;4.742;2024-01-15T02:20:40;100427.47;;;3.15;100.00
54882;BME280;40775;51.448;4.742;2024-01-15T02:23:14;100417.84;;;3.13;100.00
54882;BME280;40775;51.448;4.742;2024-01-15T02:25:44;100421.41;;;3.15;100.00
54882;BME280;40775;51.448;4.742;2024-01-15T02:28:14;100423.03;;;3.13;100.00
54882;BME280;40775;51.448;4.742;2024-01-15T02:30:43;100416.41;;;3.19;100.00
54882;BME280;40775;51.448;4.742;2024-01-15T02:33:11;100415.59;;;3.20;100.00
54882;BME280;40775;51.448;4.742;2024-01-15T02:35:39;100409.44;;;3.18;100.00
54882;BME280;40775;51.448;4.742;2024-01-15T02:38:07;100413.75;;;3.18;100.00
54882;BME280;40775;51.448;4.742;2024-01-15T02:40:35;100415.47;;;3.17;100.00
54882;BME280;40775;51.448;4.742;2024-01-15T02:43:03;100420.59;;;3.16;100.00
54882;BME280;40775;51.448;4.742;2024-01-15T02:45:30;100420.00;;;3.23;100.00
54882;BME280;40775;51.448;4.742;2024-01-15T02:47:57;100420.66;;;3.17;100.00
54882;BME280;40775;51.448;4.742;2024-01-15T02:50:24;100425.97;;;3.20;100.00
54882;BME280;40775;51.448;4.742;2024-01-15T02:52:51;100417.22;;;3.18;100.00
54882;BME280;40775;51.448;4.742;2024-01-15T02:55:19;100414.50;;;3.15;100.00
54882;BME280;40775;51.448;4.742;2024-01-15T02:57:46;100423.31;;;3.19;100.00
54882;BME280;40775;51.448;4.742;2024-01-15T03:00:13;100425.13;;;3.21;100.00
54882;BME280;40775;51.448;4.742;2024-01-15T03:02:45;100418.13;;;3.19;100.00
54882;BME280;40775;51.448;4.742;2024-01-15T03:05:14;100421.47;;;3.16;100.00
54882;BME280;40775;51.448;4.742;2024-01-15T03:07:42;100427.09;;;3.27;100.00
54882;BME280;40775;51.448;4.742;2024-01-15T03:10:10;100424.06;;;3.16;100.00
54882;BME280;40775;51.448;4.742;2024-01-15T03:12:37;100436.22;;;3.17;100.00
54882;BME280;40775;51.448;4.742;2024-01-15T03:15:04;100435.31;;;3.17;100.00
54882;BME280;40775;51.448;4.742;2024-01-15T03:17:32;100434.50;;;2.98;100.00
54882;BME280;40775;51.448;4.742;2024-01-15T03:20:00;100432.41;;;3.09;100.00
54882;BME280;40775;51.448;4.742;2024-01-15T03:22:27;100436.91;;;2.94;100.00
54882;BME280;40775;51.448;4.742;2024-01-15T03:24:54;100404.28;;;2.99;100.00
54882;BME280;40775;51.448;4.742;2024-01-15T03:27:21;100410.22;;;2.96;100.00
54882;BME280;40775;51.448;4.742;2024-01-15T03:29:48;100404.91;;;2.93;100.00
54882;BME280;40775;51.448;4.742;2024-01-15T03:32:15;100396.13;;;2.90;100.00
54882;BME280;40775;51.448;4.742;2024-01-15T03:34:43;100400.34;;;2.88;100.00
54882;BME280;40775;51.448;4.742;2024-01-15T03:37:10;100403.00;;;2.89;100.00
54882;BME280;40775;51.448;4.742;2024-01-15T03:39:37;100404.66;;;2.87;100.00
54882;BME280;40775;51.448;4.742;2024-01-15T03:42:06;100396.31;;;2.94;100.00
54882;BME280;40775;51.448;4.742;2024-01-15T03:44:33;100391.88;;;2.92;100.00
54882;BME280;40775;51.448;4.742;2024-01-15T03:47:00;100400.59;;;2.94;100.00
54882;BME280;40775;51.448;4.742;2024-01-15T03:49:27;100390.25;;;2.94;100.00
54882;BME280;40775;51.448;4.742;2024-01-15T03:51:54;100382.53;;;2.95;100.00
54882;BME280;40775;51.448;4.742;2024-01-15T03:54:21;100383.28;;;2.93;100.00
54882;BME280;40775;51.448;4.742;2024-01-15T03:56:48;100378.16;;;2.94;100.00
54882;BME280;40775;51.448;4.742;2024-01-15T03:59:15;100378.22;;;2.96;100.00
54882;BME280;40775;51.448;4.742;2024-01-15T04:01:49;100369.50;;;2.94;100.00
54882;BME280;40775;51.448;4.742;2024-01-15T04:04:18;100372.34;;;3.00;100.00
54882;BME280;40775;51.448;4.742;2024-01-15T04:06:45;100367.16;;;3.00;100.00
54882;BME280;40775;51.448;4.742;2024-01-15T04:09:13;100363.69;;;2.99;100.00
54882;BME280;40775;51.448;4.742;2024-01-15T04:11:41;100373.34;;;3.02;100.00
54882;BME280;40775;51.448;4.742;2024-01-15T04:14:08;100372.50;;;3.03;100.00
54882;BME280;40775;51.448;4.742;2024-01-15T04:16:35;100364.25;;;2.92;100.00
54882;BME280;40775;51.448;4.742;2024-01-15T04:19:03;100371.41;;;2.98;100.00
54882;BME280;40775;51.448;4.742;2024-01-15T04:21:30;100364.31;;;2.94;100.00
54882;BME280;40775;51.448;4.742;2024-01-15T04:23:57;100363.44;;;2.93;100.00
54882;BME280;40775;51.448;4.742;2024-01-15T04:26:24;100360.84;;;2.93;100.00
54882;BME280;40775;51.448;4.742;2024-01-15T04:28:51;100349.47;;;2.90;100.00
54882;BME280;40775;51.448;4.742;2024-01-15T04:31:24;100350.34;;;2.90;100.00
54882;BME280;40775;51.448;4.742;2024-01-15T04:33:51;100338.41;;;2.94;100.00
54882;BME280;40775;51.448;4.742;2024-01-15T04:36:19;100346.09;;;2.92;100.00
54882;BME280;40775;51.448;4.742;2024-01-15T04:38:46;100337.50;;;2.93;100.00
54882;BME280;40775;51.448;4.742;2024-01-15T04:41:14;100347.88;;;2.93;100.00
54882;BME280;40775;51.448;4.742;2024-01-15T04:43:42;100338.47;;;2.95;100.00
54882;BME280;40775;51.448;4.742;2024-01-15T04:46:09;100350.53;;;2.95;100.00
54882;BME280;40775;51.448;4.742;2024-01-15T04:48:37;100346.34;;;2.98;100.00
54882;BME280;40775;51.448;4.742;2024-01-15T04:51:05;100334.28;;;2.99;100.00
54882;BME280;40775;51.448;4.742;2024-01-15T04:53:34;100347.41;;;3.02;100.00
54882;BME280;40775;51.448;4.742;2024-01-15T04:56:02;100360.38;;;3.02;100.00
54882;BME280;40775;51.448;4.742;2024-01-15T04:58:29;100353.03;;;3.13;100.00
54882;BME280;40775;51.448;4.742;2024-01-15T05:00:56;100342.84;;;3.17;100.00
54882;BME280;40775;51.448;4.742;2024-01-15T05:03:23;100347.22;;;3.18;100.00
54882;BME280;40775;51.448;4.742;2024-01-15T05:05:51;100344.84;;;3.24;100.00
54882;BME280;40775;51.448;4.742;2024-01-15T05:08:18;100354.38;;;3.03;100.00
54882;BME280;40775;51.448;4.742;2024-01-15T05:10:45;100349.50;;;3.31;100.00
54882;BME280;40775;51.448;4.742;2024-01-15T05:13:12;100338.41;;;3.15;100.00
54882;BME280;40775;51.448;4.742;2024-01-15T05:15:39;100348.28;;;3.23;100.00
54882;BME280;40775;51.448;4.742;2024-01-15T05:18:06;100348.97;;;3.19;100.00
54882;BME280;40775;51.448;4.742;2024-01-15T05:20:34;100342.97;;;3.20;100.00
54882;BME280;40775;51.448;4.742;2024-01-15T05:23:01;100342.03;;;3.18;100.00
54882;BME280;40775;51.448;4.742;2024-01-15T05:25:28;100346.50;;;3.22;100.00
54882;BME280;40775;51.448;4.742;2024-01-15T05:27:55;100342.91;;;3.19;100.00
54882;BME280;40775;51.448;4.742;2024-01-15T05:30:22;100343.66;;;3.16;100.00
54882;BME280;40775;51.448;4.742;2024-01-15T05:32:50;100338.28;;;3.12;100.00
54882;BME280;40775;51.448;4.742;2024-01-15T05:35:17;100336.41;;;3.07;100.00
54882;BME280;40775;51.448;4.742;2024-01-15T05:37:45;100328.56;;;3.06;100.00
54882;BME280;40775;51.448;4.742;2024-01-15T05:40:13;100333.34;;;2.97;100.00
54882;BME280;40775;51.448;4.742;2024-01-15T05:42:41;100322.72;;;2.91;100.00
54882;BME280;40775;51.448;4.742;2024-01-15T05:45:08;100321.75;;;2.89;100.00
54882;BME280;40775;51.448;4.742;2024-01-15T05:47:36;100324.94;;;2.82;100.00
54882;BME280;40775;51.448;4.742;2024-01-15T05:50:03;100322.53;;;2.86;100.00
54882;BME280;40775;51.448;4.742;2024-01-15T05:52:31;100336.25;;;2.84;100.00
54882;BME280;40775;51.448;4.742;2024-01-15T05:54:58;100330.81;;;2.77;100.00
54882;BME280;40775;51.448;4.742;2024-01-15T05:57:26;100321.25;;;2.76;100.00
54882;BME280;40775;51.448;4.742;2024-01-15T05:59:53;100316.91;;;2.75;100.00
54882;BME280;40775;51.448;4.742;2024-01-15T06:02:20;100317.03;;;2.78;100.00
54882;BME280;40775;51.448;4.742;2024-01-15T06:04:47;100324.81;;;2.78;100.00
54882;BME280;40775;51.448;4.742;2024-01-15T06:07:14;100320.38;;;2.76;100.00
54882;BME280;40775;51.448;4.742;2024-01-15T06:09:41;100317.97;;;2.81;100.00
54882;BME280;40775;51.448;4.742;2024-01-15T06:12:09;100318.50;;;2.73;100.00
54882;BME280;40775;51.448;4.742;2024-01-15T06:14:36;100310.66;;;2.72;100.00
54882;BME280;40775;51.448;4.742;2024-01-15T06:17:03;100308.38;;;2.78;100.00
54882;BME280;40775;51.448;4.742;2024-01-15T06:19:32;100305.78;;;2.78;100.00
54882;BME280;40775;51.448;4.742;2024-01-15T06:22:00;100305.84;;;2.79;100.00
54882;BME280;40775;51.448;4.742;2024-01-15T06:24:27;100306.53;;;2.75;100.00
54882;BME280;40775;51.448;4.742;2024-01-15T06:26:54;100306.59;;;2.77;100.00
54882;BME280;40775;51.448;4.742;2024-01-15T06:29:21;100307.59;;;2.81;100.00
54882;BME280;40775;51.448;4.742;2024-01-15T06:31:48;100322.13;;;2.77;100.00
54882;BME280;40775;51.448;4.742;2024-01-15T06:34:16;100327.22;;;2.55;100.00
54882;BME280;40775;51.448;4.742;2024-01-15T06:36:43;100335.69;;;2.71;100.00
54882;BME280;40775;51.448;4.742;2024-01-15T06:39:11;100332.44;;;2.56;100.00
54882;BME280;40775;51.448;4.742;2024-01-15T06:41:38;100335.09;;;2.77;100.00
54882;BME280;40775;51.448;4.742;2024-01-15T06:44:11;100340.63;;;2.65;100.00
54882;BME280;40775;51.448;4.742;2024-01-15T06:46:42;100341.47;;;4.83;100.00
54882;BME280;40775;51.448;4.742;2024-01-15T06:49:10;100344.53;;;5.48;100.00
54882;BME280;40775;51.448;4.742;2024-01-15T06:51:38;100339.13;;;6.86;100.00
54882;BME280;40775;51.448;4.742;2024-01-15T06:54:05;100323.38;;;7.50;100.00
54882;BME280;40775;51.448;4.742;2024-01-15T06:56:32;100329.47;;;7.87;100.00
54882;BME280;40775;51.448;4.742;2024-01-15T06:58:59;100310.63;;;8.41;100.00
54882;BME280;40775;51.448;4.742;2024-01-15T07:01:26;100295.88;;;8.89;100.00
54882;BME280;40775;51.448;4.742;2024-01-15T07:03:53;100293.63;;;9.64;100.00
54882;BME280;40775;51.448;4.742;2024-01-15T07:06:21;100292.03;;;9.73;100.00
54882;BME280;40775;51.448;4.742;2024-01-15T07:08:48;100285.03;;;9.72;100.00
54882;BME280;40775;51.448;4.742;2024-01-15T07:11:16;100275.97;;;9.52;100.00
54882;BME280;40775;51.448;4.742;2024-01-15T07:13:43;100280.81;;;9.85;100.00
54882;BME280;40775;51.448;4.742;2024-01-15T07:16:10;100284.25;;;10.43;100.00
54882;BME280;40775;51.448;4.742;2024-01-15T07:18:37;100277.69;;;10.81;100.00
54882;BME280;40775;51.448;4.742;2024-01-15T07:21:05;100280.00;;;10.54;100.00
54882;BME280;40775;51.448;4.742;2024-01-15T07:23:32;100289.97;;;10.86;100.00
54882;BME280;40775;51.448;4.742;2024-01-15T07:25:59;100288.44;;;11.09;100.00
54882;BME280;40775;51.448;4.742;2024-01-15T07:28:29;100281.47;;;11.14;100.00
54882;BME280;40775;51.448;4.742;2024-01-15T07:30:56;100282.41;;;11.22;100.00
54882;BME280;40775;51.448;4.742;2024-01-15T07:33:24;100288.53;;;11.21;100.00
54882;BME280;40775;51.448;4.742;2024-01-15T07:35:51;100289.50;;;11.28;100.00
54882;BME280;40775;51.448;4.742;2024-01-15T07:38:18;100283.41;;;11.33;100.00
54882;BME280;40775;51.448;4.742;2024-01-15T07:40:45;100286.06;;;11.35;100.00
54882;BME280;40775;51.448;4.742;2024-01-15T07:43:16;100295.72;;;11.40;100.00
54882;BME280;40775;51.448;4.742;2024-01-15T07:45:43;100289.59;;;11.43;100.00
54882;BME280;40775;51.448;4.742;2024-01-15T07:48:12;100291.09;;;11.13;100.00
54882;BME280;40775;51.448;4.742;2024-01-15T07:50:39;100287.84;;;11.40;100.00
54882;BME280;40775;51.448;4.742;2024-01-15T07:53:06;100290.47;;;11.39;100.00
54882;BME280;40775;51.448;4.742;2024-01-15T07:55:33;100288.75;;;11.45;100.00
54882;BME280;40775;51.448;4.742;2024-01-15T07:58:00;100294.97;;;11.52;100.00
54882;BME280;40775;51.448;4.742;2024-01-15T08:00:41;100287.09;;;11.58;100.00
54882;BME280;40775;51.448;4.742;2024-01-15T08:03:08;100280.09;;;11.59;100.00
54882;BME280;40775;51.448;4.742;2024-01-15T08:05:35;100276.63;;;11.61;100.00
54882;BME280;40775;51.448;4.742;2024-01-15T08:08:04;100275.75;;;11.64;100.00
54882;BME280;40775;51.448;4.742;2024-01-15T08:10:31;100278.41;;;11.67;100.00
54882;BME280;40775;51.448;4.742;2024-01-15T08:12:58;100284.53;;;11.69;100.00
54882;BME280;40775;51.448;4.742;2024-01-15T08:15:25;100287.19;;;11.72;100.00
54882;BME280;40775;51.448;4.742;2024-01-15T08:17:57;100292.47;;;11.75;100.00
54882;BME280;40775;51.448;4.742;2024-01-15T08:20:25;100290.72;;;11.74;100.00
54882;BME280;40775;51.448;4.742;2024-01-15T08:22:53;100295.97;;;11.75;100.00
54882;BME280;40775;51.448;4.742;2024-01-15T08:25:20;100295.09;;;11.76;100.00
54882;BME280;40775;51.448;4.742;2024-01-15T08:27:47;100296.94;;;11.81;100.00
54882;BME280;40775;51.448;4.742;2024-01-15T08:30:14;100297.81;;;11.81;100.00
54882;BME280;40775;51.448;4.742;2024-01-15T08:32:41;100288.19;;;11.82;100.00
54882;BME280;40775;51.448;4.742;2024-01-15T08:35:10;100291.69;;;11.84;100.00
54882;BME280;40775;51.448;4.742;2024-01-15T08:37:38;100284.69;;;11.84;100.00
54882;BME280;40775;51.448;4.742;2024-01-15T08:40:06;100281.19;;;11.85;100.00
54882;BME280;40775;51.448;4.742;2024-01-15T08:42:33;100282.94;;;11.86;100.00
54882;BME280;40775;51.448;4.742;2024-01-15T08:45:00;100281.19;;;11.87;100.00
54882;BME280;40775;51.448;4.742;2024-01-15T08:47:28;100305.78;;;11.92;100.00
54882;BME280;40775;51.448;4.742;2024-01-15T08:49:55;100298.75;;;11.91;100.00
54882;BME280;40775;51.448;4.742;2024-01-15T08:52:23;100304.00;;;11.88;100.00
54882;BME280;40775;51.448;4.742;2024-01-15T08:54:50;100306.63;;;11.86;100.00
54882;BME280;40775;51.448;4.742;2024-01-15T08:57:17;100300.47;;;11.87;100.00
54882;BME280;40775;51.448;4.742;2024-01-15T08:59:44;100290.84;;;11.89;100.00
54882;BME280;40775;51.448;4.742;2024-01-15T09:02:12;100289.97;;;11.90;100.00
54882;BME280;40775;51.448;4.742;2024-01-15T09:04:39;100288.22;;;11.91;100.00
54882;BME280;40775;51.448;4.742;2024-01-15T09:07:07;100279.47;;;11.93;100.00
54882;BME280;40775;51.448;4.742;2024-01-15T09:09:34;100289.13;;;11.94;100.00
54882;BME280;40775;51.448;4.742;2024-01-15T09:12:02;100291.75;;;11.94;100.00
54882;BME280;40775;51.448;4.742;2024-01-15T09:14:29;100295.28;;;11.96;100.00
54882;BME280;40775;51.448;4.742;2024-01-15T09:17:04;100294.41;;;11.97;100.00
54882;BME280;40775;51.448;4.742;2024-01-15T09:19:32;100295.28;;;11.98;100.00
54882;BME280;40775;51.448;4.742;2024-01-15T09:21:59;100291.75;;;11.97;100.00
54882;BME280;40775;51.448;4.742;2024-01-15T09:24:26;100295.28;;;11.98;100.00
54882;BME280;40775;51.448;4.742;2024-01-15T09:26:55;100294.41;;;12.00;100.00
54882;BME280;40775;51.448;4.742;2024-01-15T09:29:23;100294.41;;;12.02;100.00
54882;BME280;40775;51.448;4.742;2024-01-15T09:31:51;100289.16;;;12.00;100.00
54882;BME280;40775;51.448;4.742;2024-01-15T09:34:18;100291.75;;;11.91;100.00
54882;BME280;40775;51.448;4.742;2024-01-15T09:36:45;100294.84;;;11.41;100.00
54882;BME280;40775;51.448;4.742;2024-01-15T09:39:13;100292.41;;;11.63;100.00
54882;BME280;40775;51.448;4.742;2024-01-15T09:41:40;100288.72;;;11.39;100.00
54882;BME280;40775;51.448;4.742;2024-01-15T09:44:08;100307.94;;;11.35;100.00
54882;BME280;40775;51.448;4.742;2024-01-15T09:46:37;100309.84;;;10.62;100.00
54882;BME280;40775;51.448;4.742;2024-01-15T09:49:05;100323.06;;;9.47;100.00
54882;BME280;40775;51.448;4.742;2024-01-15T09:51:32;100334.81;;;9.72;100.00
54882;BME280;40775;51.448;4.742;2024-01-15T09:53:59;100347.16;;;7.26;100.00
54882;BME280;40775;51.448;4.742;2024-01-15T09:56:26;100333.50;;;7.72;100.00
54882;BME280;40775;51.448;4.742;2024-01-15T09:58:54;100329.13;;;8.11;100.00
54882;BME280;40775;51.448;4.742;2024-01-15T10:01:22;100334.38;;;8.50;100.00
54882;BME280;40775;51.448;4.742;2024-01-15T10:03:50;100334.94;;;9.27;100.00
54882;BME280;40775;51.448;4.742;2024-01-15T10:06:18;100326.94;;;10.31;100.00
54882;BME280;40775;51.448;4.742;2024-01-15T10:08:50;100321.41;;;10.79;100.00
54882;BME280;40775;51.448;4.742;2024-01-15T10:11:18;100317.75;;;10.67;100.00
54882;BME280;40775;51.448;4.742;2024-01-15T10:13:45;100312.19;;;11.20;100.00
54882;BME280;40775;51.448;4.742;2024-01-15T10:16:16;100326.41;;;11.44;100.00
54882;BME280;40775;51.448;4.742;2024-01-15T10:18:43;100332.66;;;11.57;100.00
54882;BME280;40775;51.448;4.742;2024-01-15T10:21:10;100328.06;;;11.32;100.00
54882;BME280;40775;51.448;4.742;2024-01-15T10:23:38;100327.22;;;11.34;100.00
54882;BME280;40775;51.448;4.742;2024-01-15T10:26:04;100337.03;;;11.57;100.00
54882;BME280;40775;51.448;4.742;2024-01-15T10:28:32;100324.31;;;11.05;100.00
54882;BME280;40775;51.448;4.742;2024-01-15T10:31:00;100326.19;;;11.22;100.00
54882;BME280;40775;51.448;4.742;2024-01-15T10:33:28;100337.78;;;11.40;100.00
54882;BME280;40775;51.448;4.742;2024-01-15T10:35:59;100334.31;;;11.48;100.00
54882;BME280;40775;51.448;4.742;2024-01-15T10:38:27;100338.78;;;11.56;100.00
54882;BME280;40775;51.448;4.742;2024-01-15T10:40:55;100333.38;;;11.36;100.00
54882;BME280;40775;51.448;4.742;2024-01-15T10:43:23;100334.16;;;11.26;100.00
54882;BME280;40775;51.448;4.742;2024-01-15T10:45:55;100329.91;;;11.45;100.00
54882;BME280;40775;51.448;4.742;2024-01-15T10:48:22;100346.72;;;11.64;100.00
54882;BME280;40775;51.448;4.742;2024-01-15T10:50:50;100346.78;;;11.73;100.00
54882;BME280;40775;51.448;4.742;2024-01-15T10:53:17;100343.06;;;11.43;100.00
54882;BME280;40775;51.448;4.742;2024-01-15T10:55:47;100339.56;;;11.46;100.00
54882;BME280;40775;51.448;4.742;2024-01-15T10:58:16;100329.72;;;11.22;100.00
54882;BME280;40775;51.448;4.742;2024-01-15T11:00:44;100330.22;;;10.84;100.00
54882;BME280;40775;51.448;4.742;2024-01-15T11:03:12;100334.91;;;10.39;100.00
54882;BME280;40775;51.448;4.742;2024-01-15T11:05:43;100328.38;;;10.74;100.00
54882;BME280;40775;51.448;4.742;2024-01-15T11:08:10;100328.06;;;11.32;100.00
54882;BME280;40775;51.448;4.742;2024-01-15T11:10:42;100334.50;;;10.76;100.00
54882;BME280;40775;51.448;4.742;2024-01-15T11:13:40;100336.56;;;11.05;100.00
54882;BME280;40775;51.448;4.742;2024-01-15T11:16:11;100338.31;;;11.03;100.00
54882;BME280;40775;51.448;4.742;2024-01-15T11:19:02;100337.56;;;11.21;100.00
54882;BME280;40775;51.448;4.742;2024-01-15T11:21:30;100341.41;;;11.52;100.00
54882;BME280;40775;51.448;4.742;2024-01-15T11:24:00;100343.22;;;11.62;100.00
54882;BME280;40775;51.448;4.742;2024-01-15T11:26:46;100344.09;;;11.64;100.00
54882;BME280;40775;51.448;4.742;2024-01-15T11:32:04;100345.41;;;11.14;100.00
54882;BME280;40775;51.448;4.742;2024-01-15T11:34:58;100342.16;;;11.43;100.00
54882;BME280;40775;51.448;4.742;2024-01-15T11:37:29;100338.00;;;11.68;100.00
54882;BME280;40775;51.448;4.742;2024-01-15T11:40:18;100332.72;;;11.65;100.00
54882;BME280;40775;51.448;4.742;2024-01-15T11:42:46;100343.28;;;11.71;100.00
54882;BME280;40775;51.448;4.742;2024-01-15T11:45:21;100343.66;;;10.39;100.00
54882;BME280;40775;51.448;4.742;2024-01-15T11:50:49;100352.06;;;10.14;100.00
54882;BME280;40775;51.448;4.742;2024-01-15T11:53:36;100360.75;;;9.57;100.00
54882;BME280;40775;51.448;4.742;2024-01-15T11:56:14;100367.81;;;9.10;100.00
54882;BME280;40775;51.448;4.742;2024-01-15T11:58:42;100369.25;;;9.41;100.00
54882;BME280;40775;51.448;4.742;2024-01-15T12:01:11;100366.28;;;9.72;100.00
54882;BME280;40775;51.448;4.742;2024-01-15T12:03:38;100375.91;;;10.31;100.00
54882;BME280;40775;51.448;4.742;2024-01-15T12:06:06;100374.75;;;9.06;100.00
54882;BME280;40775;51.448;4.742;2024-01-15T12:08:34;100373.03;;;8.64;100.00
54882;BME280;40775;51.448;4.742;2024-01-15T12:11:07;100367.88;;;8.69;100.00
54882;BME280;40775;51.448;4.742;2024-01-15T12:13:37;100361.28;;;9.35;100.00
54882;BME280;40775;51.448;4.742;2024-01-15T12:16:04;100366.34;;;9.25;100.00
54882;BME280;40775;51.448;4.742;2024-01-15T12:18:32;100358.94;;;10.07;100.00
54882;BME280;40775;51.448;4.742;2024-01-15T12:20:59;100354.38;;;10.56;100.00
54882;BME280;40775;51.448;4.742;2024-01-15T12:23:26;100359.94;;;10.80;100.00
54882;BME280;40775;51.448;4.742;2024-01-15T12:25:54;100343.91;;;9.94;100.00
54882;BME280;40775;51.448;4.742;2024-01-15T12:28:22;100361.59;;;10.72;100.00
54882;BME280;40775;51.448;4.742;2024-01-15T12:30:49;100342.72;;;11.08;100.00
54882;BME280;40775;51.448;4.742;2024-01-15T12:33:18;100348.16;;;11.25;100.00
54882;BME280;40775;51.448;4.742;2024-01-15T12:35:47;100346.50;;;11.36;100.00
54882;BME280;40775;51.448;4.742;2024-01-15T12:38:14;100356.63;;;10.97;100.00
54882;BME280;40775;51.448;4.742;2024-01-15T12:40:44;100354.34;;;11.32;100.00
54882;BME280;40775;51.448;4.742;2024-01-15T12:43:13;100372.50;;;11.09;100.00
54882;BME280;40775;51.448;4.742;2024-01-15T12:45:40;100365.47;;;11.05;100.00
54882;BME280;40775;51.448;4.742;2024-01-15T12:48:08;100371.00;;;11.32;100.00
54882;BME280;40775;51.448;4.742;2024-01-15T12:50:36;100385.84;;;11.27;100.00
54882;BME280;40775;51.448;4.742;2024-01-15T12:53:03;100381.72;;;10.73;100.00
54882;BME280;40775;51.448;4.742;2024-01-15T12:55:30;100380.50;;;11.21;100.00